createdAt,value
2016-10-19T00:00:36.932Z,0
2016-10-19T00:01:50.474Z,0
2016-10-19T00:03:04.114Z,0
2016-10-19T00:04:16.877Z,0
2016-10-19T00:05:30.515Z,0
2016-10-19T00:06:44.112Z,0
2016-10-19T00:07:57.844Z,0
2016-10-19T00:09:11.402Z,0
2016-10-19T00:10:24.983Z,0
2016-10-19T00:11:38.528Z,0
2016-10-19T00:12:51.602Z,0
2016-10-19T00:14:05.162Z,0
2016-10-19T00:15:18.733Z,0
2016-10-19T00:16:31.763Z,0
2016-10-19T00:17:45.645Z,0
2016-10-19T00:18:59.236Z,0
2016-10-19T00:20:12.842Z,0
2016-10-19T00:21:25.877Z,0
2016-10-19T00:22:38.919Z,0
2016-10-19T00:23:52.466Z,0
2016-10-19T00:25:05.522Z,0
2016-10-19T00:26:19.146Z,0
2016-10-19T00:27:32.183Z,0
2016-10-19T00:28:45.753Z,0
2016-10-19T00:29:58.730Z,0
2016-10-19T00:31:12.513Z,0
2016-10-19T00:32:26.170Z,0
2016-10-19T00:33:39.649Z,0
2016-10-19T00:34:52.895Z,0
2016-10-19T00:36:06.484Z,0
2016-10-19T00:37:20.038Z,0
2016-10-19T00:38:33.588Z,0
2016-10-19T00:39:46.617Z,0
2016-10-19T00:41:00.159Z,0
2016-10-19T00:42:12.688Z,0
2016-10-19T00:43:25.713Z,0
2016-10-19T00:44:39.295Z,0
2016-10-19T00:45:52.810Z,0
2016-10-19T00:47:06.400Z,0
2016-10-19T00:48:19.951Z,0
2016-10-19T00:49:33.470Z,0
2016-10-19T00:50:46.512Z,0
2016-10-19T00:51:59.579Z,0
2016-10-19T00:53:13.128Z,0
2016-10-19T00:54:26.756Z,0
2016-10-19T00:55:40.328Z,0
2016-10-19T00:56:53.881Z,0
2016-10-19T00:58:07.412Z,0
2016-10-19T00:59:20.938Z,0
2016-10-19T01:00:34.008Z,0
2016-10-19T01:01:47.071Z,0
2016-10-19T01:03:00.593Z,0
2016-10-19T01:04:14.088Z,0
2016-10-19T01:05:27.418Z,0
2016-10-19T01:06:41.677Z,0
2016-10-19T01:07:55.196Z,0
2016-10-19T01:09:08.710Z,0
2016-10-19T01:10:22.260Z,0
2016-10-19T01:11:35.901Z,0
2016-10-19T01:12:49.522Z,0
2016-10-19T01:14:02.541Z,0
2016-10-19T01:15:16.217Z,0
2016-10-19T01:16:29.800Z,0
2016-10-19T01:17:43.343Z,0
2016-10-19T01:18:56.379Z,0
2016-10-19T01:20:09.953Z,0
2016-10-19T01:21:22.982Z,0
2016-10-19T01:22:36.067Z,0
2016-10-19T01:23:49.642Z,0
2016-10-19T01:25:03.185Z,0
2016-10-19T01:26:15.621Z,0
2016-10-19T01:27:29.177Z,0
2016-10-19T01:28:42.809Z,0
2016-10-19T01:29:56.429Z,0
2016-10-19T01:31:10.001Z,0
2016-10-19T01:32:23.579Z,0
2016-10-19T01:33:36.688Z,0
2016-10-19T01:34:50.188Z,0
2016-10-19T01:36:03.240Z,0
2016-10-19T01:37:16.272Z,0
2016-10-19T01:38:29.942Z,0
2016-10-19T01:39:42.934Z,0
2016-10-19T01:40:56.529Z,0
2016-10-19T01:42:10.036Z,0
2016-10-19T01:43:23.607Z,0
2016-10-19T01:44:36.655Z,0
2016-10-19T01:45:49.723Z,0
2016-10-19T01:47:03.259Z,0
2016-10-19T01:48:16.848Z,0
2016-10-19T01:49:29.878Z,0
2016-10-19T01:50:43.502Z,0
2016-10-19T01:51:57.056Z,0
2016-10-19T01:53:10.595Z,0
2016-10-19T01:54:24.117Z,0
2016-10-19T01:55:37.176Z,0
2016-10-19T01:56:50.754Z,0
2016-10-19T01:58:03.803Z,0
2016-10-19T01:59:17.307Z,0
2016-10-19T02:00:30.347Z,0
2016-10-19T02:01:43.934Z,0
2016-10-19T02:02:57.467Z,0
2016-10-19T02:04:11.005Z,0
2016-10-19T02:05:24.351Z,0
2016-10-19T02:06:38.069Z,0
2016-10-19T02:07:51.886Z,0
2016-10-19T02:09:05.181Z,0
2016-10-19T02:10:18.858Z,0
2016-10-19T02:11:32.330Z,0
2016-10-19T02:12:45.864Z,0
2016-10-19T02:13:59.416Z,0
2016-10-19T02:15:12.994Z,0
2016-10-19T02:16:26.592Z,0
2016-10-19T02:17:40.242Z,0
2016-10-19T02:18:53.269Z,0
2016-10-19T02:20:06.843Z,0
2016-10-19T02:21:19.909Z,0
2016-10-19T02:22:32.913Z,0
2016-10-19T02:23:46.480Z,0
2016-10-19T02:25:00.059Z,0
2016-10-19T02:26:13.668Z,0
2016-10-19T02:27:27.751Z,0
2016-10-19T02:28:40.744Z,0
2016-10-19T02:29:54.251Z,0
2016-10-19T02:31:07.803Z,0
2016-10-19T02:32:21.769Z,0
2016-10-19T02:33:35.351Z,0
2016-10-19T02:34:48.843Z,0
2016-10-19T02:36:02.354Z,0
2016-10-19T02:37:15.964Z,0
2016-10-19T02:38:29.482Z,0
2016-10-19T02:39:42.566Z,0
2016-10-19T02:40:56.055Z,0
2016-10-19T02:42:09.605Z,0
2016-10-19T02:43:23.147Z,0
2016-10-19T02:44:36.482Z,0
2016-10-19T02:45:50.010Z,0
2016-10-19T02:47:03.541Z,0
2016-10-19T02:48:16.622Z,0
2016-10-19T02:49:30.240Z,0
2016-10-19T02:50:43.768Z,0
2016-10-19T02:51:57.324Z,0
2016-10-19T02:53:10.341Z,0
2016-10-19T02:54:23.961Z,0
2016-10-19T02:55:37.049Z,0
2016-10-19T02:56:50.108Z,0
2016-10-19T02:58:03.681Z,0
2016-10-19T02:59:17.205Z,0
2016-10-19T03:00:30.297Z,0
2016-10-19T03:01:43.802Z,0
2016-10-19T03:02:56.740Z,0
2016-10-19T03:04:09.709Z,0
2016-10-19T03:05:23.280Z,0
2016-10-19T03:06:36.871Z,0
2016-10-19T03:07:50.962Z,0
2016-10-19T03:09:04.512Z,0
2016-10-19T03:10:17.496Z,0
2016-10-19T03:11:30.939Z,0
2016-10-19T03:12:44.517Z,0
2016-10-19T03:13:57.554Z,0
2016-10-19T03:15:10.605Z,0
2016-10-19T03:16:24.128Z,0
2016-10-19T03:17:37.740Z,0
2016-10-19T03:18:51.340Z,0
2016-10-19T03:20:04.932Z,0
2016-10-19T03:21:18.800Z,0
2016-10-19T03:22:32.382Z,0
2016-10-19T03:23:45.891Z,0
2016-10-19T03:24:59.476Z,0
2016-10-19T03:26:12.946Z,0
2016-10-19T03:27:26.477Z,0
2016-10-19T03:28:40.040Z,0
2016-10-19T03:29:53.025Z,0
2016-10-19T03:31:06.046Z,0
2016-10-19T03:32:19.575Z,0
2016-10-19T03:33:32.145Z,0
2016-10-19T03:34:45.209Z,0
2016-10-19T03:35:58.694Z,0
2016-10-19T03:37:12.571Z,0
2016-10-19T03:38:26.136Z,0
2016-10-19T03:39:39.170Z,0
2016-10-19T03:40:52.680Z,0
2016-10-19T03:42:06.224Z,0
2016-10-19T03:43:18.875Z,0
2016-10-19T03:44:32.439Z,0
2016-10-19T03:45:45.651Z,0
2016-10-19T03:46:59.214Z,0
2016-10-19T03:48:13.118Z,0
2016-10-19T03:49:26.107Z,0
2016-10-19T03:50:39.653Z,0
2016-10-19T03:51:52.743Z,0
2016-10-19T03:53:05.765Z,0
2016-10-19T03:54:19.309Z,0
2016-10-19T03:55:32.840Z,0
2016-10-19T03:56:45.899Z,0
2016-10-19T03:57:59.518Z,0
2016-10-19T03:59:13.078Z,0
2016-10-19T04:00:26.686Z,0
2016-10-19T04:01:40.221Z,0
2016-10-19T04:02:53.242Z,0
2016-10-19T04:04:06.817Z,0
2016-10-19T04:05:20.379Z,0
2016-10-19T04:06:33.409Z,0
2016-10-19T04:07:47.078Z,0
2016-10-19T04:09:00.747Z,0
2016-10-19T04:10:14.316Z,0
2016-10-19T04:11:28.014Z,0
2016-10-19T04:12:41.048Z,0
2016-10-19T04:13:54.860Z,0
2016-10-19T04:15:08.441Z,0
2016-10-19T04:16:21.877Z,0
2016-10-19T04:17:35.465Z,0
2016-10-19T04:18:48.995Z,0
2016-10-19T04:20:02.625Z,0
2016-10-19T04:21:16.118Z,0
2016-10-19T04:22:29.646Z,0
2016-10-19T04:23:43.238Z,0
2016-10-19T04:24:56.888Z,0
2016-10-19T04:26:10.398Z,0
2016-10-19T04:27:23.452Z,0
2016-10-19T04:28:36.939Z,0
2016-10-19T04:29:50.522Z,0
2016-10-19T04:31:03.510Z,0
2016-10-19T04:32:17.029Z,0
2016-10-19T04:33:30.531Z,0
2016-10-19T04:34:44.024Z,0
2016-10-19T04:35:57.046Z,0
2016-10-19T04:37:10.605Z,0
2016-10-19T04:38:23.625Z,0
2016-10-19T04:39:37.176Z,0
2016-10-19T04:40:50.183Z,0
2016-10-19T04:42:03.817Z,0
2016-10-19T04:43:17.336Z,0
2016-10-19T04:44:29.309Z,0
2016-10-19T04:45:42.874Z,0
2016-10-19T04:46:56.443Z,0
2016-10-19T04:48:10.014Z,0
2016-10-19T04:49:23.532Z,0
2016-10-19T04:50:36.032Z,0
2016-10-19T04:51:49.573Z,0
2016-10-19T04:53:03.140Z,0
2016-10-19T04:54:16.694Z,0
2016-10-19T04:55:30.039Z,0
2016-10-19T04:56:43.540Z,0
2016-10-19T04:57:57.078Z,0
2016-10-19T04:59:09.805Z,0
2016-10-19T05:00:22.821Z,0
2016-10-19T05:01:35.886Z,0
2016-10-19T05:02:49.420Z,0
2016-10-19T05:04:02.444Z,0
2016-10-19T05:05:15.982Z,0
2016-10-19T05:06:29.012Z,0
2016-10-19T05:07:42.629Z,0
2016-10-19T05:08:56.281Z,0
2016-10-19T05:10:08.749Z,0
2016-10-19T05:11:22.318Z,0
2016-10-19T05:12:35.926Z,0
2016-10-19T05:13:48.404Z,0
2016-10-19T05:15:01.977Z,0
2016-10-19T05:16:15.734Z,0
2016-10-19T05:17:29.305Z,0
2016-10-19T05:18:42.896Z,0
2016-10-19T05:19:55.963Z,0
2016-10-19T05:21:09.558Z,0
2016-10-19T05:22:22.580Z,0
2016-10-19T05:23:35.600Z,0
2016-10-19T05:24:49.177Z,0
2016-10-19T05:26:02.273Z,0
2016-10-19T05:27:15.851Z,0
2016-10-19T05:28:28.846Z,0
2016-10-19T05:29:42.585Z,0
2016-10-19T05:30:56.080Z,0
2016-10-19T05:32:09.648Z,0
2016-10-19T05:33:22.716Z,0
2016-10-19T05:34:35.789Z,0
2016-10-19T05:35:48.836Z,0
2016-10-19T05:37:01.833Z,0
2016-10-19T05:38:14.877Z,0
2016-10-19T05:39:28.014Z,0
2016-10-19T05:40:41.608Z,0
2016-10-19T05:41:54.682Z,0
2016-10-19T05:43:07.699Z,0
2016-10-19T05:44:20.696Z,0
2016-10-19T05:45:34.246Z,0
2016-10-19T05:46:47.789Z,0
2016-10-19T05:48:01.359Z,0
2016-10-19T05:49:14.967Z,0
2016-10-19T05:50:28.228Z,0
2016-10-19T05:51:41.790Z,0
2016-10-19T05:52:55.327Z,0
2016-10-19T05:54:08.334Z,0
2016-10-19T05:55:21.996Z,0
2016-10-19T05:56:35.465Z,0
2016-10-19T05:57:48.793Z,0
2016-10-19T05:59:01.778Z,0
2016-10-19T06:00:16.346Z,0
2016-10-19T06:01:29.865Z,0
2016-10-19T06:02:43.418Z,0
2016-10-19T06:03:56.916Z,0
2016-10-19T06:05:10.428Z,0
2016-10-19T06:06:24.039Z,0
2016-10-19T06:07:37.314Z,0
2016-10-19T06:08:49.221Z,0
2016-10-19T06:10:02.847Z,0
2016-10-19T06:11:16.391Z,0
2016-10-19T06:12:29.667Z,0
2016-10-19T06:13:42.735Z,0
2016-10-19T06:14:56.276Z,0
2016-10-19T06:16:09.309Z,0
2016-10-19T06:17:22.255Z,0
2016-10-19T06:18:35.845Z,0
2016-10-19T06:19:49.387Z,0
2016-10-19T06:21:02.423Z,0
2016-10-19T06:22:15.780Z,0
2016-10-19T06:23:29.400Z,0
2016-10-19T06:24:42.656Z,0
2016-10-19T06:25:55.643Z,0
2016-10-19T06:27:09.248Z,0
2016-10-19T06:28:22.783Z,0
2016-10-19T06:29:36.399Z,0
2016-10-19T06:30:49.957Z,0
2016-10-19T06:32:03.529Z,0
2016-10-19T06:33:17.045Z,0
2016-10-19T06:34:30.666Z,0
2016-10-19T06:35:44.202Z,0
2016-10-19T06:36:57.235Z,0
2016-10-19T06:38:10.267Z,0
2016-10-19T06:39:23.779Z,0
2016-10-19T06:40:36.817Z,0
2016-10-19T06:41:50.395Z,0
2016-10-19T06:43:04.050Z,0
2016-10-19T06:44:17.648Z,0
2016-10-19T06:45:30.644Z,0
2016-10-19T06:46:44.214Z,0
2016-10-19T06:47:57.578Z,0
2016-10-19T06:49:10.699Z,0
2016-10-19T06:50:23.786Z,0
2016-10-19T06:51:37.347Z,0
2016-10-19T06:52:49.293Z,0
2016-10-19T06:54:02.280Z,0
2016-10-19T06:55:15.711Z,0
2016-10-19T06:56:28.763Z,0
2016-10-19T06:57:42.304Z,0
2016-10-19T06:58:55.853Z,0
2016-10-19T07:00:09.412Z,0
2016-10-19T07:01:22.995Z,0
2016-10-19T07:02:36.043Z,0
2016-10-19T07:03:49.082Z,0
2016-10-19T07:05:02.565Z,0
2016-10-19T07:06:16.087Z,0
2016-10-19T07:07:29.036Z,0
2016-10-19T07:08:42.635Z,0
2016-10-19T07:09:55.655Z,0
2016-10-19T07:11:09.164Z,0
2016-10-19T07:12:22.179Z,0
2016-10-19T07:13:35.790Z,0
2016-10-19T07:14:49.326Z,0
2016-10-19T07:16:02.890Z,0
2016-10-19T07:17:15.925Z,0
2016-10-19T07:18:28.976Z,0
2016-10-19T07:19:42.297Z,0
2016-10-19T07:20:55.359Z,0
2016-10-19T07:22:08.350Z,0
2016-10-19T07:23:21.950Z,0
2016-10-19T07:24:35.579Z,0
2016-10-19T07:25:49.088Z,0
2016-10-19T07:27:02.699Z,0
2016-10-19T07:28:16.259Z,0
2016-10-19T07:29:29.887Z,0
2016-10-19T07:30:43.426Z,0
2016-10-19T07:31:56.452Z,0
2016-10-19T07:33:10.006Z,0
2016-10-19T07:34:23.529Z,0
2016-10-19T07:35:37.074Z,0
2016-10-19T07:36:50.600Z,0
2016-10-19T07:38:03.123Z,0
2016-10-19T07:39:16.130Z,0
2016-10-19T07:40:29.727Z,0
2016-10-19T07:41:42.724Z,0
2016-10-19T07:42:56.299Z,0
2016-10-19T07:44:09.869Z,0
2016-10-19T07:45:23.486Z,0
2016-10-19T07:46:36.430Z,0
2016-10-19T07:47:50.049Z,0
2016-10-19T07:49:03.099Z,0
2016-10-19T07:50:16.123Z,0
2016-10-19T07:51:29.646Z,0
2016-10-19T07:52:42.789Z,0
2016-10-19T07:53:56.362Z,0
2016-10-19T07:55:09.943Z,0
2016-10-19T07:56:22.972Z,0
2016-10-19T07:57:35.991Z,0
2016-10-19T07:58:48.803Z,0
2016-10-19T08:00:02.346Z,0
2016-10-19T08:01:15.342Z,0
2016-10-19T08:02:28.482Z,0
2016-10-19T08:03:40.981Z,0
2016-10-19T08:04:54.524Z,0
2016-10-19T08:06:07.026Z,0
2016-10-19T08:07:20.582Z,0
2016-10-19T08:08:34.186Z,0
2016-10-19T08:09:47.206Z,0
2016-10-19T08:11:00.273Z,0
2016-10-19T08:12:13.862Z,0
2016-10-19T08:13:27.414Z,0
2016-10-19T08:14:40.904Z,0
2016-10-19T08:15:53.883Z,0
2016-10-19T08:17:07.378Z,0
2016-10-19T08:18:20.444Z,0
2016-10-19T08:19:34.006Z,0
2016-10-19T08:20:47.556Z,0
2016-10-19T08:22:01.137Z,0
2016-10-19T08:23:14.439Z,0
2016-10-19T08:24:27.562Z,0
2016-10-19T08:25:41.248Z,0
2016-10-19T08:26:54.778Z,0
2016-10-19T08:28:07.264Z,0
2016-10-19T08:29:20.806Z,0
2016-10-19T08:30:33.786Z,0
2016-10-19T08:31:47.375Z,0
2016-10-19T08:33:00.414Z,0
2016-10-19T08:34:13.442Z,0
2016-10-19T08:35:26.977Z,0
2016-10-19T08:36:40.494Z,0
2016-10-19T08:37:53.466Z,0
2016-10-19T08:39:07.115Z,0
2016-10-19T08:40:20.734Z,0
2016-10-19T08:41:34.273Z,0
2016-10-19T08:42:46.831Z,0
2016-10-19T08:44:00.457Z,0
2016-10-19T08:45:14.041Z,0
2016-10-19T08:46:27.592Z,0
2016-10-19T08:47:41.142Z,0
2016-10-19T08:48:54.159Z,0
2016-10-19T08:50:07.195Z,5
2016-10-19T08:51:20.697Z,5
2016-10-19T08:52:34.243Z,5
2016-10-19T08:53:47.826Z,5
2016-10-19T08:55:00.803Z,5
2016-10-19T08:56:14.416Z,5
2016-10-19T08:57:27.226Z,5
2016-10-19T08:58:39.678Z,5
2016-10-19T08:59:53.206Z,5
2016-10-19T09:01:06.675Z,5
2016-10-19T09:02:19.682Z,5
2016-10-19T09:03:33.197Z,5
2016-10-19T09:04:46.748Z,5
2016-10-19T09:06:00.294Z,10
2016-10-19T09:07:13.912Z,10
2016-10-19T09:08:27.503Z,10
2016-10-19T09:09:40.526Z,10
2016-10-19T09:10:53.761Z,10
2016-10-19T09:12:07.302Z,10
2016-10-19T09:13:20.853Z,10
2016-10-19T09:14:34.425Z,10
2016-10-19T09:15:48.013Z,10
2016-10-19T09:17:01.602Z,10
2016-10-19T09:18:14.662Z,10
2016-10-19T09:19:28.304Z,15
2016-10-19T09:20:41.953Z,15
2016-10-19T09:21:55.127Z,15
2016-10-19T09:23:08.115Z,15
2016-10-19T09:24:22.073Z,15
2016-10-19T09:25:35.083Z,15
2016-10-19T09:26:48.423Z,15
2016-10-19T09:28:01.403Z,15
2016-10-19T09:29:14.396Z,15
2016-10-19T09:30:27.660Z,15
2016-10-19T09:31:41.144Z,15
2016-10-19T09:32:54.168Z,15
2016-10-19T09:34:07.761Z,20
2016-10-19T09:35:21.290Z,20
2016-10-19T09:36:34.870Z,20
2016-10-19T09:37:48.471Z,20
2016-10-19T09:39:01.520Z,20
2016-10-19T09:40:15.012Z,20
2016-10-19T09:41:27.828Z,20
2016-10-19T09:42:41.327Z,20
2016-10-19T09:43:55.140Z,20
2016-10-19T09:45:08.733Z,20
2016-10-19T09:46:22.344Z,20
2016-10-19T09:47:35.415Z,25
2016-10-19T09:48:48.947Z,25
2016-10-19T09:50:02.561Z,25
2016-10-19T09:51:15.865Z,25
2016-10-19T09:52:29.365Z,25
2016-10-19T09:53:42.821Z,25
2016-10-19T09:54:55.782Z,25
2016-10-19T09:56:08.801Z,25
2016-10-19T09:57:22.351Z,25
2016-10-19T09:58:35.909Z,25
2016-10-19T09:59:49.582Z,25
2016-10-19T10:01:03.136Z,30
2016-10-19T10:02:16.734Z,30
2016-10-19T10:03:29.793Z,30
2016-10-19T10:04:42.838Z,30
2016-10-19T10:05:55.295Z,30
2016-10-19T10:07:08.809Z,30
2016-10-19T10:08:22.391Z,30
2016-10-19T10:09:35.907Z,30
2016-10-19T10:10:49.193Z,30
2016-10-19T10:12:01.899Z,30
2016-10-19T10:13:13.856Z,30
2016-10-19T10:14:27.086Z,30
2016-10-19T10:15:40.336Z,30
2016-10-19T10:16:53.855Z,30
2016-10-19T10:18:07.439Z,30
2016-10-19T10:19:20.995Z,30
2016-10-19T10:20:33.997Z,30
2016-10-19T10:21:47.577Z,30
2016-10-19T10:23:01.106Z,30
2016-10-19T10:24:14.655Z,30
2016-10-19T10:25:27.670Z,30
2016-10-19T10:26:41.210Z,30
2016-10-19T10:27:54.857Z,30
2016-10-19T10:29:08.418Z,30
2016-10-19T10:30:22.112Z,30
2016-10-19T10:31:38.672Z,30
2016-10-19T10:32:52.242Z,30
2016-10-19T10:34:05.753Z,30
2016-10-19T10:35:19.295Z,35
2016-10-19T10:36:32.291Z,35
2016-10-19T10:37:45.872Z,35
2016-10-19T10:38:59.442Z,35
2016-10-19T10:40:12.475Z,35
2016-10-19T10:41:25.997Z,35
2016-10-19T10:42:39.077Z,35
2016-10-19T10:43:52.600Z,35
2016-10-19T10:45:06.155Z,35
2016-10-19T10:46:19.705Z,35
2016-10-19T10:47:32.743Z,35
2016-10-19T10:48:46.272Z,35
2016-10-19T10:49:59.331Z,35
2016-10-19T10:51:12.076Z,35
2016-10-19T10:52:25.615Z,35
2016-10-19T10:53:39.221Z,35
2016-10-19T10:54:52.826Z,35
2016-10-19T10:56:04.812Z,35
2016-10-19T10:57:17.850Z,35
2016-10-19T10:58:31.384Z,35
2016-10-19T10:59:44.887Z,35
2016-10-19T11:00:58.495Z,35
2016-10-19T11:02:12.035Z,35
2016-10-19T11:03:25.619Z,35
2016-10-19T11:04:39.139Z,35
2016-10-19T11:05:52.213Z,35
2016-10-19T11:07:05.815Z,35
2016-10-19T11:08:19.043Z,35
2016-10-19T11:09:32.039Z,30
2016-10-19T11:10:45.893Z,30
2016-10-19T11:11:59.454Z,30
2016-10-19T11:13:12.408Z,30
2016-10-19T11:14:25.960Z,30
2016-10-19T11:15:38.463Z,30
2016-10-19T11:16:52.054Z,25
2016-10-19T11:18:05.605Z,30
2016-10-19T11:19:19.011Z,30
2016-10-19T11:20:32.522Z,30
2016-10-19T11:21:46.122Z,35
2016-10-19T11:22:59.676Z,35
2016-10-19T11:24:13.251Z,35
2016-10-19T11:25:26.302Z,35
2016-10-19T11:26:39.832Z,35
2016-10-19T11:27:52.940Z,35
2016-10-19T11:29:06.443Z,35
2016-10-19T11:30:19.995Z,35
2016-10-19T11:31:33.650Z,40
2016-10-19T11:32:47.216Z,40
2016-10-19T11:34:00.729Z,40
2016-10-19T11:35:14.239Z,40
2016-10-19T11:36:27.697Z,45
2016-10-19T11:37:41.178Z,45
2016-10-19T11:38:54.744Z,45
2016-10-19T11:40:07.768Z,50
2016-10-19T11:41:20.564Z,50
2016-10-19T11:42:34.181Z,55
2016-10-19T11:43:47.695Z,55
2016-10-19T11:45:01.235Z,60
2016-10-19T11:46:14.267Z,65
2016-10-19T11:47:27.823Z,65
2016-10-19T11:48:40.095Z,70
2016-10-19T11:49:53.124Z,75
2016-10-19T11:51:05.551Z,75
2016-10-19T11:52:19.101Z,80
2016-10-19T11:53:31.639Z,80
2016-10-19T11:54:45.210Z,85
2016-10-19T11:55:58.750Z,85
2016-10-19T11:57:12.241Z,85
2016-10-19T11:58:25.795Z,85
2016-10-19T11:59:39.255Z,85
2016-10-19T12:00:52.311Z,85
2016-10-19T12:02:05.878Z,90
2016-10-19T12:03:19.038Z,90
2016-10-19T12:04:32.571Z,95
2016-10-19T12:05:45.948Z,95
2016-10-19T12:06:59.523Z,95
2016-10-19T12:08:13.065Z,100
2016-10-19T12:09:26.647Z,100
2016-10-19T12:10:40.237Z,100
2016-10-19T12:11:53.810Z,105
2016-10-19T12:13:06.805Z,105
2016-10-19T12:14:20.361Z,110
2016-10-19T12:15:33.957Z,110
2016-10-19T12:16:46.908Z,110
2016-10-19T12:18:00.545Z,115
2016-10-19T12:19:14.154Z,115
2016-10-19T12:20:26.652Z,120
2016-10-19T12:21:39.654Z,120
2016-10-19T12:22:53.227Z,120
2016-10-19T12:24:06.806Z,125
2016-10-19T12:25:19.751Z,125
2016-10-19T12:26:32.764Z,125
2016-10-19T12:27:45.920Z,125
2016-10-19T12:28:59.419Z,130
2016-10-19T12:30:12.433Z,130
2016-10-19T12:31:25.994Z,130
2016-10-19T12:32:37.930Z,135
2016-10-19T12:33:50.929Z,135
2016-10-19T12:35:03.996Z,140
2016-10-19T12:36:17.005Z,140
2016-10-19T12:37:30.024Z,140
2016-10-19T12:38:43.082Z,145
2016-10-19T12:39:56.092Z,145
2016-10-19T12:41:09.670Z,155
2016-10-19T12:42:23.253Z,150
2016-10-19T12:43:36.794Z,155
2016-10-19T12:44:50.372Z,155
2016-10-19T12:46:03.914Z,155
2016-10-19T12:47:17.210Z,160
2016-10-19T12:48:30.794Z,160
2016-10-19T12:49:44.351Z,165
2016-10-19T12:50:56.809Z,165
2016-10-19T12:52:10.463Z,170
2016-10-19T12:53:24.039Z,170
2016-10-19T12:54:37.619Z,175
2016-10-19T12:55:51.203Z,175
2016-10-19T12:57:04.913Z,175
2016-10-19T12:58:18.566Z,175
2016-10-19T12:59:32.131Z,180
2016-10-19T13:00:45.949Z,180
2016-10-19T13:01:59.581Z,185
2016-10-19T13:03:12.872Z,185
2016-10-19T13:04:26.393Z,190
2016-10-19T13:05:39.469Z,190
2016-10-19T13:06:53.039Z,195
2016-10-19T13:08:06.358Z,200
2016-10-19T13:09:19.424Z,195
2016-10-19T13:10:32.973Z,200
2016-10-19T13:11:46.511Z,205
2016-10-19T13:13:00.122Z,205
2016-10-19T13:14:13.835Z,210
2016-10-19T13:15:27.407Z,210
2016-10-19T13:16:40.997Z,215
2016-10-19T13:17:54.125Z,210
2016-10-19T13:19:07.420Z,215
2016-10-19T13:20:19.958Z,220
2016-10-19T13:21:33.609Z,225
2016-10-19T13:22:47.216Z,230
2016-10-19T13:24:00.235Z,230
2016-10-19T13:25:13.796Z,225
2016-10-19T13:26:27.050Z,230
2016-10-19T13:27:40.541Z,230
2016-10-19T13:28:53.572Z,240
2016-10-19T13:30:06.590Z,235
2016-10-19T13:31:19.630Z,240
2016-10-19T13:32:32.681Z,235
2016-10-19T13:33:46.259Z,245
2016-10-19T13:34:59.838Z,250
2016-10-19T13:36:13.384Z,250
2016-10-19T13:37:26.934Z,250
2016-10-19T13:38:40.542Z,255
2016-10-19T13:39:54.157Z,255
2016-10-19T13:41:07.794Z,265
2016-10-19T13:42:20.801Z,265
2016-10-19T13:43:33.838Z,270
2016-10-19T13:44:46.811Z,265
2016-10-19T13:45:59.828Z,270
2016-10-19T13:47:13.400Z,275
2016-10-19T13:48:26.458Z,280
2016-10-19T13:49:39.408Z,285
2016-10-19T13:50:52.951Z,285
2016-10-19T13:52:06.555Z,295
2016-10-19T13:53:20.160Z,295
2016-10-19T13:54:33.733Z,295
2016-10-19T13:55:47.356Z,300
2016-10-19T13:57:00.871Z,300
2016-10-19T13:58:14.415Z,305
2016-10-19T13:59:27.512Z,310
2016-10-19T14:00:41.103Z,315
2016-10-19T14:01:53.845Z,320
2016-10-19T14:03:07.404Z,320
2016-10-19T14:04:21.083Z,325
2016-10-19T14:05:33.912Z,330
2016-10-19T14:06:46.909Z,335
2016-10-19T14:07:59.915Z,340
2016-10-19T14:09:13.543Z,345
2016-10-19T14:10:26.616Z,350
2016-10-19T14:11:40.174Z,350
2016-10-19T14:12:53.759Z,355
2016-10-19T14:14:06.341Z,360
2016-10-19T14:15:19.982Z,360
2016-10-19T14:16:33.279Z,365
2016-10-19T14:17:46.314Z,375
2016-10-19T14:18:58.808Z,370
2016-10-19T14:20:12.387Z,370
2016-10-19T14:21:26.035Z,380
2016-10-19T14:22:39.024Z,380
2016-10-19T14:23:52.595Z,385
2016-10-19T14:25:06.134Z,385
2016-10-19T14:26:19.145Z,390
2016-10-19T14:27:31.572Z,385
2016-10-19T14:28:45.222Z,390
2016-10-19T14:29:58.820Z,390
2016-10-19T14:31:11.840Z,400
2016-10-19T14:32:24.931Z,400
2016-10-19T14:33:37.927Z,405
2016-10-19T14:34:51.037Z,405
2016-10-19T14:36:04.630Z,410
2016-10-19T14:37:18.257Z,415
2016-10-19T14:38:31.789Z,415
2016-10-19T14:39:45.348Z,415
2016-10-19T14:40:58.893Z,415
2016-10-19T14:42:12.500Z,420
2016-10-19T14:43:25.531Z,425
2016-10-19T14:44:39.130Z,430
2016-10-19T14:45:52.180Z,435
2016-10-19T14:47:05.736Z,440
2016-10-19T14:48:19.319Z,435
2016-10-19T14:49:32.399Z,435
2016-10-19T14:50:46.043Z,435
2016-10-19T14:51:59.588Z,440
2016-10-19T14:53:13.156Z,440
2016-10-19T14:54:26.718Z,445
2016-10-19T14:55:40.337Z,450
2016-10-19T14:56:53.458Z,450
2016-10-19T14:58:07.023Z,450
2016-10-19T14:59:20.073Z,450
2016-10-19T15:00:33.697Z,455
2016-10-19T15:01:47.285Z,455
2016-10-19T15:03:00.314Z,455
2016-10-19T15:04:13.291Z,455
2016-10-19T15:05:26.841Z,455
2016-10-19T15:06:39.899Z,460
2016-10-19T15:07:53.598Z,460
2016-10-19T15:09:05.573Z,460
2016-10-19T15:10:18.058Z,455
2016-10-19T15:11:30.633Z,460
2016-10-19T15:12:44.232Z,460
2016-10-19T15:13:57.513Z,465
2016-10-19T15:15:10.561Z,465
2016-10-19T15:16:24.160Z,460
2016-10-19T15:17:37.180Z,460
2016-10-19T15:18:50.729Z,465
2016-10-19T15:20:04.291Z,470
2016-10-19T15:21:17.282Z,465
2016-10-19T15:22:30.324Z,465
2016-10-19T15:23:43.368Z,465
2016-10-19T15:24:56.442Z,460
2016-10-19T15:26:10.058Z,465
2016-10-19T15:27:23.651Z,465
2016-10-19T15:28:36.707Z,460
2016-10-19T15:29:50.103Z,460
2016-10-19T15:31:03.147Z,465
2016-10-19T15:32:16.159Z,470
2016-10-19T15:33:29.671Z,475
2016-10-19T15:34:43.237Z,470
2016-10-19T15:35:56.282Z,475
2016-10-19T15:37:09.878Z,480
2016-10-19T15:38:22.957Z,480
2016-10-19T15:39:36.570Z,480
2016-10-19T15:40:49.616Z,485
2016-10-19T15:42:02.625Z,480
2016-10-19T15:43:16.220Z,465
2016-10-19T15:44:28.761Z,475
2016-10-19T15:45:41.822Z,480
2016-10-19T15:46:55.417Z,475
2016-10-19T15:48:08.993Z,475
2016-10-19T15:49:22.572Z,470
2016-10-19T15:50:35.324Z,470
2016-10-19T15:51:49.170Z,475
2016-10-19T15:53:02.780Z,470
2016-10-19T15:54:16.393Z,475
2016-10-19T15:55:29.940Z,475
2016-10-19T15:56:42.438Z,475
2016-10-19T15:57:56.031Z,485
2016-10-19T15:59:09.557Z,480
2016-10-19T16:00:23.078Z,490
2016-10-19T16:01:36.147Z,480
2016-10-19T16:02:49.717Z,480
2016-10-19T16:04:03.290Z,475
2016-10-19T16:05:16.902Z,470
2016-10-19T16:06:30.531Z,465
2016-10-19T16:07:44.078Z,465
2016-10-19T16:08:57.611Z,470
2016-10-19T16:10:11.201Z,470
2016-10-19T16:11:24.159Z,475
2016-10-19T16:12:37.479Z,470
2016-10-19T16:13:51.007Z,465
2016-10-19T16:15:03.977Z,470
2016-10-19T16:16:17.564Z,475
2016-10-19T16:17:31.207Z,470
2016-10-19T16:18:44.745Z,475
2016-10-19T16:19:58.443Z,480
2016-10-19T16:21:11.493Z,475
2016-10-19T16:22:24.553Z,455
2016-10-19T16:23:37.601Z,455
2016-10-19T16:24:50.613Z,455
2016-10-19T16:26:03.619Z,460
2016-10-19T16:27:17.202Z,460
2016-10-19T16:28:30.796Z,455
2016-10-19T16:29:44.506Z,455
2016-10-19T16:30:57.995Z,460
2016-10-19T16:32:11.578Z,460
2016-10-19T16:33:25.426Z,460
2016-10-19T16:34:38.975Z,465
2016-10-19T16:35:52.517Z,455
2016-10-19T16:37:05.060Z,455
2016-10-19T16:38:18.576Z,455
2016-10-19T16:39:32.102Z,455
2016-10-19T16:40:45.637Z,460
2016-10-19T16:41:59.256Z,430
2016-10-19T16:43:12.564Z,415
2016-10-19T16:44:26.138Z,390
2016-10-19T16:45:39.781Z,395
2016-10-19T16:46:53.334Z,415
2016-10-19T16:48:06.371Z,420
2016-10-19T16:49:19.980Z,415
2016-10-19T16:50:33.242Z,410
2016-10-19T16:51:46.858Z,420
2016-10-19T16:53:00.403Z,425
2016-10-19T16:54:13.967Z,430
2016-10-19T16:55:27.535Z,420
2016-10-19T16:56:40.770Z,420
2016-10-19T16:57:54.360Z,430
2016-10-19T16:59:07.382Z,420
2016-10-19T17:00:20.881Z,415
2016-10-19T17:01:33.963Z,410
2016-10-19T17:02:47.287Z,405
2016-10-19T17:04:00.344Z,400
2016-10-19T17:05:13.945Z,400
2016-10-19T17:06:26.733Z,385
2016-10-19T17:07:39.172Z,360
2016-10-19T17:08:52.254Z,395
2016-10-19T17:10:05.303Z,395
2016-10-19T17:11:19.321Z,395
2016-10-19T17:12:32.883Z,390
2016-10-19T17:13:46.395Z,380
2016-10-19T17:14:59.946Z,390
2016-10-19T17:16:13.053Z,375
2016-10-19T17:17:26.082Z,380
2016-10-19T17:18:39.615Z,375
2016-10-19T17:19:53.183Z,375
2016-10-19T17:21:06.727Z,365
2016-10-19T17:22:19.769Z,365
2016-10-19T17:23:32.819Z,365
2016-10-19T17:24:46.411Z,360
2016-10-19T17:26:00.038Z,365
2016-10-19T17:27:13.641Z,355
2016-10-19T17:28:26.156Z,355
2016-10-19T17:29:39.725Z,355
2016-10-19T17:30:52.236Z,350
2016-10-19T17:32:05.276Z,350
2016-10-19T17:33:19.256Z,350